sensor_id;sensor_type;location;lat;lon;timestamp;pressure;altitude;pressure_sealevel;temperature
24714;BMP280;12820;51.580;5.010;2023-04-21T00:02:00;101430.31;;;11.85
24714;BMP280;12820;51.580;5.010;2023-04-21T00:07:03;101426.13;;;11.81
24714;BMP280;12820;51.580;5.010;2023-04-21T00:12:05;101421.13;;;11.78
24714;BMP280;12820;51.580;5.010;2023-04-21T00:17:07;101413.63;;;11.74
24714;BMP280;12820;51.580;5.010;2023-04-21T00:22:09;101412.84;;;11.68
24714;BMP280;12820;51.580;5.010;2023-04-21T00:27:15;101410.38;;;11.63
24714;BMP280;12820;51.580;5.010;2023-04-21T00:32:18;101405.38;;;11.60
24714;BMP280;12820;51.580;5.010;2023-04-21T00:37:20;101402.06;;;11.57
24714;BMP280;12820;51.580;5.010;2023-04-21T00:42:23;101395.34;;;11.53
24714;BMP280;12820;51.580;5.010;2023-04-21T00:47:26;101382.81;;;11.49
24714;BMP280;12820;51.580;5.010;2023-04-21T00:52:29;101397.97;;;11.46
24714;BMP280;12820;51.580;5.010;2023-04-21T00:57:31;101375.34;;;11.41
24714;BMP280;12820;51.580;5.010;2023-04-21T01:02:35;101394.66;;;11.39
24714;BMP280;12820;51.580;5.010;2023-04-21T01:07:38;101386.25;;;11.39
24714;BMP280;12820;51.580;5.010;2023-04-21T01:12:45;101380.38;;;11.38
24714;BMP280;12820;51.580;5.010;2023-04-21T01:17:47;101382.91;;;11.38
24714;BMP280;12820;51.580;5.010;2023-04-21T01:22:50;101392.16;;;11.37
24714;BMP280;12820;51.580;5.010;2023-04-21T01:27:52;101374.56;;;11.34
24714;BMP280;12820;51.580;5.010;2023-04-21T01:32:55;101370.41;;;11.33
24714;BMP280;12820;51.580;5.010;2023-04-21T01:38:00;101359.50;;;11.31
24714;BMP280;12820;51.580;5.010;2023-04-21T01:43:02;101352.78;;;11.31
24714;BMP280;12820;51.580;5.010;2023-04-21T01:48:05;101363.69;;;11.32
24714;BMP280;12820;51.580;5.010;2023-04-21T01:53:07;101367.06;;;11.31
24714;BMP280;12820;51.580;5.010;2023-04-21T01:58:10;101345.25;;;11.27
24714;BMP280;12820;51.580;5.010;2023-04-21T02:03:12;101348.63;;;11.24
24714;BMP280;12820;51.580;5.010;2023-04-21T02:08:15;101320.19;;;11.18
24714;BMP280;12820;51.580;5.010;2023-04-21T02:13:18;101328.56;;;11.17
24714;BMP280;12820;51.580;5.010;2023-04-21T02:18:20;101329.44;;;11.13
24714;BMP280;12820;51.580;5.010;2023-04-21T02:23:22;101323.56;;;11.11
24714;BMP280;12820;51.580;5.010;2023-04-21T02:28:24;101319.44;;;11.07
24714;BMP280;12820;51.580;5.010;2023-04-21T02:33:26;101316.97;;;11.01
24714;BMP280;12820;51.580;5.010;2023-04-21T02:38:28;101305.25;;;10.96
24714;BMP280;12820;51.580;5.010;2023-04-21T02:43:31;101306.13;;;10.94
24714;BMP280;12820;51.580;5.010;2023-04-21T02:48:34;101295.28;;;10.90
24714;BMP280;12820;51.580;5.010;2023-04-21T02:53:36;101299.47;;;10.87
24714;BMP280;12820;51.580;5.010;2023-04-21T02:58:39;101302.03;;;10.85
24714;BMP280;12820;51.580;5.010;2023-04-21T03:03:41;101294.47;;;10.85
24714;BMP280;12820;51.580;5.010;2023-04-21T03:08:45;101305.38;;;10.84
24714;BMP280;12820;51.580;5.010;2023-04-21T03:13:47;101297.84;;;10.84
24714;BMP280;12820;51.580;5.010;2023-04-21T03:18:49;101291.13;;;10.83
24714;BMP280;12820;51.580;5.010;2023-04-21T03:23:52;101291.97;;;10.84
24714;BMP280;12820;51.580;5.010;2023-04-21T03:28:54;101284.41;;;10.84
24714;BMP280;12820;51.580;5.010;2023-04-21T03:33:58;101279.41;;;10.84
24714;BMP280;12820;51.580;5.010;2023-04-21T03:39:00;101286.94;;;10.84
24714;BMP280;12820;51.580;5.010;2023-04-21T03:44:20;101283.59;;;10.85
24714;BMP280;12820;51.580;5.010;2023-04-21T03:49:22;101275.19;;;10.83
24714;BMP280;12820;51.580;5.010;2023-04-21T03:54:24;101268.50;;;10.85
24714;BMP280;12820;51.580;5.010;2023-04-21T03:59:26;101271.84;;;10.85
24714;BMP280;12820;51.580;5.010;2023-04-21T04:04:28;101278.50;;;10.88
24714;BMP280;12820;51.580;5.010;2023-04-21T04:09:32;101283.53;;;10.89
24714;BMP280;12820;51.580;5.010;2023-04-21T04:14:34;101285.22;;;10.90
24714;BMP280;12820;51.580;5.010;2023-04-21T04:19:36;101273.44;;;10.94
24714;BMP280;12820;51.580;5.010;2023-04-21T04:24:38;101272.59;;;10.95
24714;BMP280;12820;51.580;5.010;2023-04-21T04:29:40;101266.69;;;10.96
24714;BMP280;12820;51.580;5.010;2023-04-21T04:34:44;101260.00;;;10.98
24714;BMP280;12820;51.580;5.010;2023-04-21T04:39:46;101259.16;;;10.97
24714;BMP280;12820;51.580;5.010;2023-04-21T04:44:52;101265.84;;;11.00
24714;BMP280;12820;51.580;5.010;2023-04-21T04:49:54;101264.19;;;11.00
24714;BMP280;12820;51.580;5.010;2023-04-21T04:54:56;101276.72;;;11.01
24714;BMP280;12820;51.580;5.010;2023-04-21T04:59:58;101280.06;;;11.03
24714;BMP280;12820;51.580;5.010;2023-04-21T05:05:01;101286.75;;;11.04
24714;BMP280;12820;51.580;5.010;2023-04-21T05:10:03;101287.56;;;11.08
24714;BMP280;12820;51.580;5.010;2023-04-21T05:15:06;101287.53;;;11.11
24714;BMP280;12820;51.580;5.010;2023-04-21T05:20:09;101279.94;;;11.17
24714;BMP280;12820;51.580;5.010;2023-04-21T05:25:11;101290.75;;;11.24
24714;BMP280;12820;51.580;5.010;2023-04-21T05:30:16;101297.38;;;11.34
24714;BMP280;12820;51.580;5.010;2023-04-21T05:35:18;101306.50;;;11.47
24714;BMP280;12820;51.580;5.010;2023-04-21T05:40:20;101312.22;;;11.59
24714;BMP280;12820;51.580;5.010;2023-04-21T05:45:22;101316.38;;;11.66
24714;BMP280;12820;51.580;5.010;2023-04-21T05:50:25;101312.06;;;11.72
24714;BMP280;12820;51.580;5.010;2023-04-21T05:55:29;101319.56;;;11.76
24714;BMP280;12820;51.580;5.010;2023-04-21T06:00:31;101319.56;;;11.79
24714;BMP280;12820;51.580;5.010;2023-04-21T06:05:34;101319.50;;;11.82
24714;BMP280;12820;51.580;5.010;2023-04-21T06:10:36;101314.41;;;11.88
24714;BMP280;12820;51.580;5.010;2023-04-21T06:15:38;101309.25;;;11.97
24714;BMP280;12820;51.580;5.010;2023-04-21T06:20:40;101307.44;;;12.07
24714;BMP280;12820;51.580;5.010;2023-04-21T06:25:42;101307.31;;;12.18
24714;BMP280;12820;51.580;5.010;2023-04-21T06:30:44;101309.66;;;12.29
24714;BMP280;12820;51.580;5.010;2023-04-21T06:35:46;101322.13;;;12.40
24714;BMP280;12820;51.580;5.010;2023-04-21T06:40:49;101317.69;;;12.56
24714;BMP280;12820;51.580;5.010;2023-04-21T06:45:51;101310.72;;;12.73
24714;BMP280;12820;51.580;5.010;2023-04-21T06:50:53;101315.44;;;12.93
24714;BMP280;12820;51.580;5.010;2023-04-21T06:55:55;101310.09;;;13.09
24714;BMP280;12820;51.580;5.010;2023-04-21T07:00:58;101309.16;;;13.17
24714;BMP280;12820;51.580;5.010;2023-04-21T07:06:00;101319.09;;;13.26
24714;BMP280;12820;51.580;5.010;2023-04-21T07:11:02;101309.63;;;13.37
24714;BMP280;12820;51.580;5.010;2023-04-21T07:16:04;101302.56;;;13.55
24714;BMP280;12820;51.580;5.010;2023-04-21T07:21:06;101298.06;;;13.70
24714;BMP280;12820;51.580;5.010;2023-04-21T07:26:08;101300.31;;;13.85
24714;BMP280;12820;51.580;5.010;2023-04-21T07:31:11;101304.19;;;14.00
24714;BMP280;12820;51.580;5.010;2023-04-21T07:36:13;101297.88;;;14.19
24714;BMP280;12820;51.580;5.010;2023-04-21T07:41:16;101298.72;;;14.19
24714;BMP280;12820;51.580;5.010;2023-04-21T07:46:18;101302.91;;;14.20
24714;BMP280;12820;51.580;5.010;2023-04-21T07:51:22;101297.00;;;14.20
24714;BMP280;12820;51.580;5.010;2023-04-21T07:56:24;101295.47;;;14.51
24714;BMP280;12820;51.580;5.010;2023-04-21T08:01:27;101293.47;;;14.65
24714;BMP280;12820;51.580;5.010;2023-04-21T08:06:29;101296.84;;;14.64
24714;BMP280;12820;51.580;5.010;2023-04-21T08:11:31;101295.47;;;14.51
24714;BMP280;12820;51.580;5.010;2023-04-21T08:16:33;101292.34;;;14.40
24714;BMP280;12820;51.580;5.010;2023-04-21T08:21:36;101298.34;;;14.35
24714;BMP280;12820;51.580;5.010;2023-04-21T08:26:39;101295.06;;;14.32
24714;BMP280;12820;51.580;5.010;2023-04-21T08:31:41;101299.13;;;14.37
24714;BMP280;12820;51.580;5.010;2023-04-21T08:36:44;101288.88;;;14.44
24714;BMP280;12820;51.580;5.010;2023-04-21T08:41:48;101297.94;;;14.53
24714;BMP280;12820;51.580;5.010;2023-04-21T08:46:51;101287.56;;;14.64
24714;BMP280;12820;51.580;5.010;2023-04-21T08:51:55;101283.34;;;14.65
24714;BMP280;12820;51.580;5.010;2023-04-21T08:56:58;101278.16;;;14.69
24714;BMP280;12820;51.580;5.010;2023-04-21T09:02:17;101277.09;;;14.79
24714;BMP280;12820;51.580;5.010;2023-04-21T09:07:30;101279.50;;;14.83
24714;BMP280;12820;51.580;5.010;2023-04-21T09:12:33;101266.72;;;14.88
24714;BMP280;12820;51.580;5.010;2023-04-21T09:17:35;101269.06;;;14.96
24714;BMP280;12820;51.580;5.010;2023-04-21T09:22:39;101260.38;;;15.06
24714;BMP280;12820;51.580;5.010;2023-04-21T09:27:41;101255.88;;;15.17
24714;BMP280;12820;51.580;5.010;2023-04-21T09:32:44;101258.13;;;15.27
24714;BMP280;12820;51.580;5.010;2023-04-21T09:37:46;101255.13;;;15.43
24714;BMP280;12820;51.580;5.010;2023-04-21T09:42:48;101250.59;;;15.55
24714;BMP280;12820;51.580;5.010;2023-04-21T09:47:54;101246.75;;;15.71
24714;BMP280;12820;51.580;5.010;2023-04-21T09:52:59;101246.13;;;15.91
24714;BMP280;12820;51.580;5.010;2023-04-21T09:58:04;101243.06;;;16.10
24714;BMP280;12820;51.580;5.010;2023-04-21T10:03:08;101240.75;;;16.30
24714;BMP280;12820;51.580;5.010;2023-04-21T10:08:12;101241.47;;;16.60
24714;BMP280;12820;51.580;5.010;2023-04-21T10:13:15;101220.63;;;17.01
24714;BMP280;12820;51.580;5.010;2023-04-21T10:18:22;101210.41;;;17.94
24714;BMP280;12820;51.580;5.010;2023-04-21T10:23:36;101214.88;;;18.31
24714;BMP280;12820;51.580;5.010;2023-04-21T10:39:10;101186.03;;;18.91
24714;BMP280;12820;51.580;5.010;2023-04-21T10:44:17;101177.25;;;19.16
24714;BMP280;12820;51.580;5.010;2023-04-21T10:49:27;101171.28;;;19.35
24714;BMP280;12820;51.580;5.010;2023-04-21T10:59:44;101154.81;;;19.79
24714;BMP280;12820;51.580;5.010;2023-04-21T11:04:53;101151.41;;;19.97
24714;BMP280;12820;51.580;5.010;2023-04-21T11:10:01;101146.56;;;20.26
24714;BMP280;12820;51.580;5.010;2023-04-21T11:15:11;101146.19;;;20.51
24714;BMP280;12820;51.580;5.010;2023-04-21T11:20:15;101144.25;;;20.72
24714;BMP280;12820;51.580;5.010;2023-04-21T11:25:17;101137.00;;;20.80
24714;BMP280;12820;51.580;5.010;2023-04-21T11:30:20;101113.50;;;21.05
24714;BMP280;12820;51.580;5.010;2023-04-21T11:35:22;101109.88;;;21.41
24714;BMP280;12820;51.580;5.010;2023-04-21T11:40:27;101089.81;;;21.79
24714;BMP280;12820;51.580;5.010;2023-04-21T11:45:29;101082.22;;;22.08
24714;BMP280;12820;51.580;5.010;2023-04-21T11:50:33;101072.28;;;22.17
24714;BMP280;12820;51.580;5.010;2023-04-21T11:55:41;101076.09;;;22.39
24714;BMP280;12820;51.580;5.010;2023-04-21T12:00:44;101064.19;;;22.38
24714;BMP280;12820;51.580;5.010;2023-04-21T12:05:55;101060.69;;;22.67
24714;BMP280;12820;51.580;5.010;2023-04-21T12:10:57;101053.63;;;23.12
24714;BMP280;12820;51.580;5.010;2023-04-21T12:16:02;101044.38;;;23.36
24714;BMP280;12820;51.580;5.010;2023-04-21T12:21:05;101050.47;;;23.73
24714;BMP280;12820;51.580;5.010;2023-04-21T12:26:07;101047.13;;;24.11
24714;BMP280;12820;51.580;5.010;2023-04-21T12:31:09;101023.53;;;24.55
24714;BMP280;12820;51.580;5.010;2023-04-21T12:36:12;101029.75;;;24.64
24714;BMP280;12820;51.580;5.010;2023-04-21T12:41:14;101035.66;;;24.40
24714;BMP280;12820;51.580;5.010;2023-04-21T12:46:16;101034.94;;;24.26
24714;BMP280;12820;51.580;5.010;2023-04-21T12:51:18;101031.31;;;24.17
24714;BMP280;12820;51.580;5.010;2023-04-21T12:56:20;101032.03;;;23.81
24714;BMP280;12820;51.580;5.010;2023-04-21T13:01:25;101021.78;;;25.04
24714;BMP280;12820;51.580;5.010;2023-04-21T13:06:28;101022.19;;;24.49
24714;BMP280;12820;51.580;5.010;2023-04-21T13:11:30;101011.28;;;26.21
24714;BMP280;12820;51.580;5.010;2023-04-21T13:16:32;101008.78;;;26.85
24714;BMP280;12820;51.580;5.010;2023-04-21T13:21:34;100994.25;;;27.06
24714;BMP280;12820;51.580;5.010;2023-04-21T13:26:36;100983.31;;;29.42
24714;BMP280;12820;51.580;5.010;2023-04-21T13:31:38;100976.28;;;31.32
24714;BMP280;12820;51.580;5.010;2023-04-21T13:36:41;100982.22;;;32.59
24714;BMP280;12820;51.580;5.010;2023-04-21T13:41:43;100968.59;;;33.77
24714;BMP280;12820;51.580;5.010;2023-04-21T13:46:45;100950.66;;;33.74
24714;BMP280;12820;51.580;5.010;2023-04-21T13:51:47;100940.22;;;34.74
24714;BMP280;12820;51.580;5.010;2023-04-21T13:56:50;100931.00;;;35.15
24714;BMP280;12820;51.580;5.010;2023-04-21T14:01:52;100914.88;;;35.12
24714;BMP280;12820;51.580;5.010;2023-04-21T14:06:54;100919.38;;;35.47
24714;BMP280;12820;51.580;5.010;2023-04-21T14:11:57;100897.13;;;35.29
24714;BMP280;12820;51.580;5.010;2023-04-21T14:16:59;100892.25;;;33.13
24714;BMP280;12820;51.580;5.010;2023-04-21T14:22:01;100893.91;;;33.14
24714;BMP280;12820;51.580;5.010;2023-04-21T14:27:03;100896.03;;;31.46
24714;BMP280;12820;51.580;5.010;2023-04-21T14:32:06;100885.69;;;29.88
24714;BMP280;12820;51.580;5.010;2023-04-21T14:37:08;100866.91;;;29.31
24714;BMP280;12820;51.580;5.010;2023-04-21T14:42:11;100864.38;;;28.74
24714;BMP280;12820;51.580;5.010;2023-04-21T14:47:13;100857.75;;;27.93
24714;BMP280;12820;51.580;5.010;2023-04-21T14:52:15;100846.41;;;28.82
24714;BMP280;12820;51.580;5.010;2023-04-21T14:57:17;100839.38;;;29.39
24714;BMP280;12820;51.580;5.010;2023-04-21T15:02:22;100835.13;;;29.38
24714;BMP280;12820;51.580;5.010;2023-04-21T15:07:24;100832.53;;;28.83
24714;BMP280;12820;51.580;5.010;2023-04-21T15:12:26;100839.47;;;27.85
24714;BMP280;12820;51.580;5.010;2023-04-21T15:17:28;100826.97;;;27.00
24714;BMP280;12820;51.580;5.010;2023-04-21T15:22:30;100824.56;;;26.25
24714;BMP280;12820;51.580;5.010;2023-04-21T15:27:33;100816.44;;;25.76
24714;BMP280;12820;51.580;5.010;2023-04-21T15:32:35;100806.22;;;25.42
24714;BMP280;12820;51.580;5.010;2023-04-21T15:37:37;100797.66;;;25.08
24714;BMP280;12820;51.580;5.010;2023-04-21T15:42:39;100796.72;;;24.76
24714;BMP280;12820;51.580;5.010;2023-04-21T15:47:41;100785.34;;;24.55
24714;BMP280;12820;51.580;5.010;2023-04-21T15:52:43;100776.47;;;24.36
24714;BMP280;12820;51.580;5.010;2023-04-21T15:57:46;100771.06;;;24.28
24714;BMP280;12820;51.580;5.010;2023-04-21T16:02:48;100769.69;;;24.35
24714;BMP280;12820;51.580;5.010;2023-04-21T16:07:50;100749.63;;;24.40
24714;BMP280;12820;51.580;5.010;2023-04-21T16:12:52;100744.41;;;24.29
24714;BMP280;12820;51.580;5.010;2023-04-21T16:17:54;100733.19;;;24.07
24714;BMP280;12820;51.580;5.010;2023-04-21T16:22:57;100731.25;;;23.86
24714;BMP280;12820;51.580;5.010;2023-04-21T16:28:00;100721.84;;;23.63
24714;BMP280;12820;51.580;5.010;2023-04-21T16:33:02;100726.69;;;23.43
24714;BMP280;12820;51.580;5.010;2023-04-21T16:38:04;100718.47;;;23.26
24714;BMP280;12820;51.580;5.010;2023-04-21T16:43:06;100714.72;;;23.05
24714;BMP280;12820;51.580;5.010;2023-04-21T16:48:09;100711.94;;;22.84
24714;BMP280;12820;51.580;5.010;2023-04-21T16:53:11;100711.03;;;22.59
24714;BMP280;12820;51.580;5.010;2023-04-21T16:58:13;100684.22;;;22.39
24714;BMP280;12820;51.580;5.010;2023-04-21T17:03:17;100671.03;;;22.19
24714;BMP280;12820;51.580;5.010;2023-04-21T17:08:20;100677.69;;;21.95
24714;BMP280;12820;51.580;5.010;2023-04-21T17:13:22;100733.13;;;21.68
24714;BMP280;12820;51.580;5.010;2023-04-21T17:18:24;100760.59;;;21.23
24714;BMP280;12820;51.580;5.010;2023-04-21T17:23:26;100687.84;;;20.58
24714;BMP280;12820;51.580;5.010;2023-04-21T17:28:28;100707.88;;;19.90
24714;BMP280;12820;51.580;5.010;2023-04-21T17:33:30;100706.13;;;19.27
24714;BMP280;12820;51.580;5.010;2023-04-21T17:38:32;100705.38;;;18.77
24714;BMP280;12820;51.580;5.010;2023-04-21T17:43:35;100706.63;;;18.34
24714;BMP280;12820;51.580;5.010;2023-04-21T17:48:37;100697.41;;;17.97
24714;BMP280;12820;51.580;5.010;2023-04-21T17:53:42;100679.34;;;17.65
24714;BMP280;12820;51.580;5.010;2023-04-21T17:58:44;100686.19;;;17.45
24714;BMP280;12820;51.580;5.010;2023-04-21T18:03:46;100685.44;;;17.25
24714;BMP280;12820;51.580;5.010;2023-04-21T18:08:48;100672.56;;;17.10
24714;BMP280;12820;51.580;5.010;2023-04-21T18:13:51;100664.56;;;17.00
24714;BMP280;12820;51.580;5.010;2023-04-21T18:18:53;100669.13;;;16.92
24714;BMP280;12820;51.580;5.010;2023-04-21T18:23:57;100678.88;;;16.81
24714;BMP280;12820;51.580;5.010;2023-04-21T18:28:59;100686.19;;;16.69
24714;BMP280;12820;51.580;5.010;2023-04-21T18:34:01;100706.13;;;16.57
24714;BMP280;12820;51.580;5.010;2023-04-21T18:39:03;100720.25;;;16.43
24714;BMP280;12820;51.580;5.010;2023-04-21T18:44:05;100732.63;;;16.29
24714;BMP280;12820;51.580;5.010;2023-04-21T18:49:07;100746.75;;;16.14
24714;BMP280;12820;51.580;5.010;2023-04-21T18:54:09;100761.66;;;16.00
24714;BMP280;12820;51.580;5.010;2023-04-21T18:59:13;100759.66;;;15.85
24714;BMP280;12820;51.580;5.010;2023-04-21T19:04:15;100772.69;;;15.75
24714;BMP280;12820;51.580;5.010;2023-04-21T19:09:17;100757.06;;;15.64
24714;BMP280;12820;51.580;5.010;2023-04-21T19:14:19;100759.19;;;15.52
24714;BMP280;12820;51.580;5.010;2023-04-21T19:19:21;100767.28;;;15.39
24714;BMP280;12820;51.580;5.010;2023-04-21T19:24:24;100765.13;;;15.28
24714;BMP280;12820;51.580;5.010;2023-04-21T19:29:27;100721.66;;;15.17
24714;BMP280;12820;51.580;5.010;2023-04-21T19:34:29;100686.63;;;15.05
24714;BMP280;12820;51.580;5.010;2023-04-21T19:39:31;100703.81;;;14.96
24714;BMP280;12820;51.580;5.010;2023-04-21T19:44:33;100701.56;;;14.87
24714;BMP280;12820;51.580;5.010;2023-04-21T19:49:35;100716.09;;;14.81
24714;BMP280;12820;51.580;5.010;2023-04-21T19:54:38;100739.06;;;14.75
24714;BMP280;12820;51.580;5.010;2023-04-21T19:59:40;100767.16;;;14.68
24714;BMP280;12820;51.580;5.010;2023-04-21T20:04:42;100753.94;;;14.60
24714;BMP280;12820;51.580;5.010;2023-04-21T20:09:45;100774.34;;;14.54
24714;BMP280;12820;51.580;5.010;2023-04-21T20:14:47;100786.31;;;14.49
24714;BMP280;12820;51.580;5.010;2023-04-21T20:19:49;100824.38;;;14.45
24714;BMP280;12820;51.580;5.010;2023-04-21T20:24:52;100832.09;;;14.40
24714;BMP280;12820;51.580;5.010;2023-04-21T20:29:55;100848.28;;;14.35
24714;BMP280;12820;51.580;5.010;2023-04-21T20:34:57;100910.81;;;14.29
24714;BMP280;12820;51.580;5.010;2023-04-21T20:40:00;100961.50;;;14.24
24714;BMP280;12820;51.580;5.010;2023-04-21T20:45:05;100957.38;;;14.22
24714;BMP280;12820;51.580;5.010;2023-04-21T20:50:07;100949.97;;;14.15
24714;BMP280;12820;51.580;5.010;2023-04-21T20:55:10;100940.94;;;14.06
24714;BMP280;12820;51.580;5.010;2023-04-21T21:00:12;100918.38;;;13.99
24714;BMP280;12820;51.580;5.010;2023-04-21T21:05:14;100872.28;;;13.91
24714;BMP280;12820;51.580;5.010;2023-04-21T21:10:16;100777.28;;;13.86
24714;BMP280;12820;51.580;5.010;2023-04-21T21:15:19;100779.91;;;13.80
24714;BMP280;12820;51.580;5.010;2023-04-21T21:20:21;100778.47;;;13.73
24714;BMP280;12820;51.580;5.010;2023-04-21T21:25:23;100766.84;;;13.67
24714;BMP280;12820;51.580;5.010;2023-04-21T21:30:25;100781.38;;;13.60
24714;BMP280;12820;51.580;5.010;2023-04-21T21:35:27;100787.44;;;13.53
24714;BMP280;12820;51.580;5.010;2023-04-21T21:40:29;100785.16;;;13.45
24714;BMP280;12820;51.580;5.010;2023-04-21T21:45:32;100776.13;;;13.36
24714;BMP280;12820;51.580;5.010;2023-04-21T21:50:34;100757.03;;;13.27
24714;BMP280;12820;51.580;5.010;2023-04-21T21:55:36;100744.59;;;13.19
24714;BMP280;12820;51.580;5.010;2023-04-21T22:00:38;100745.69;;;13.10
24714;BMP280;12820;51.580;5.010;2023-04-21T22:05:41;100755.19;;;13.00
24714;BMP280;12820;51.580;5.010;2023-04-21T22:10:43;100758.81;;;12.91
24714;BMP280;12820;51.580;5.010;2023-04-21T22:15:46;100759.03;;;12.82
24714;BMP280;12820;51.580;5.010;2023-04-21T22:20:48;100758.44;;;12.73
24714;BMP280;12820;51.580;5.010;2023-04-21T22:25:50;100748.56;;;12.64
24714;BMP280;12820;51.580;5.010;2023-04-21T22:30:52;100744.53;;;12.56
24714;BMP280;12820;51.580;5.010;2023-04-21T22:35:54;100742.16;;;12.48
24714;BMP280;12820;51.580;5.010;2023-04-21T22:40:56;100745.81;;;12.37
24714;BMP280;12820;51.580;5.010;2023-04-21T22:45:58;100746.00;;;12.28
24714;BMP280;12820;51.580;5.010;2023-04-21T22:51:01;100744.53;;;12.20
24714;BMP280;12820;51.580;5.010;2023-04-21T22:56:03;100753.97;;;12.11
24714;BMP280;12820;51.580;5.010;2023-04-21T23:01:06;100747.44;;;12.03
24714;BMP280;12820;51.580;5.010;2023-04-21T23:06:08;100760.19;;;11.95
24714;BMP280;12820;51.580;5.010;2023-04-21T23:11:10;100757.84;;;11.87
24714;BMP280;12820;51.580;5.010;2023-04-21T23:16:12;100748.81;;;11.78
24714;BMP280;12820;51.580;5.010;2023-04-21T23:21:14;100747.22;;;11.73
24714;BMP280;12820;51.580;5.010;2023-04-21T23:26:17;100747.41;;;11.66
24714;BMP280;12820;51.580;5.010;2023-04-21T23:31:19;100751.69;;;11.61
24714;BMP280;12820;51.580;5.010;2023-04-21T23:36:21;100745.94;;;11.53
24714;BMP280;12820;51.580;5.010;2023-04-21T23:41:23;100746.09;;;11.47
24714;BMP280;12820;51.580;5.010;2023-04-21T23:46:25;100755.44;;;11.41
24714;BMP280;12820;51.580;5.010;2023-04-21T23:51:27;100749.69;;;11.35
24714;BMP280;12820;51.580;5.010;2023-04-21T23:56:29;100749.81;;;11.29
